Time;durP1;ratioP1;P1;durP2;ratioP2;P2;SDS_P1;SDS_P2;PMS_P1;PMS_P2;Temp;Humidity;BMP_temperature;BMP_pressure;BME280_temperature;BME280_humidity;BME280_pressure;Samples;Min_cycle;Max_cycle;Signal;HPM_P1;HPM_P2
2022/07/18 00:00:53;;;;;;;3.38;1.95;;;;;;;;;;4978411;28;20470;-88
2022/07/18 00:03:19;;;;;;;5.68;1.90;;;;;;;;;;4982388;28;20051;-87
2022/07/18 00:05:47;;;;;;;3.20;1.60;;;;;;;;;;4982215;28;20031;-86
2022/07/18 00:08:12;;;;;;;6.50;1.95;;;;;;;;;;4965449;28;20041;-87
2022/07/18 00:10:38;;;;;;;2.80;2.00;;;;;;;;;;4965883;28;20039;-88
2022/07/18 00:13:03;;;;;;;3.55;1.50;;;;;;;;;;4969515;28;20066;-87
2022/07/18 00:15:29;;;;;;;2.50;1.80;;;;;;;;;;4970127;28;20027;-87
2022/07/18 00:17:54;;;;;;;3.60;1.98;;;;;;;;;;4968747;28;20046;-86
2022/07/18 00:20:20;;;;;;;2.97;1.65;;;;;;;;;;4982019;28;20161;-86
2022/07/18 00:22:45;;;;;;;4.55;1.67;;;;;;;;;;4967969;28;20050;-87
2022/07/18 00:25:10;;;;;;;2.58;1.70;;;;;;;;;;4960007;28;20160;-87
2022/07/18 00:27:36;;;;;;;2.65;1.52;;;;;;;;;;4962184;28;20055;-87
2022/07/18 00:30:03;;;;;;;5.13;1.83;;;;;;;;;;4974533;28;20038;-87
2022/07/18 00:32:28;;;;;;;4.03;1.70;;;;;;;;;;4977508;28;20043;-87
2022/07/18 00:34:54;;;;;;;1.70;1.60;;;;;;;;;;4969257;28;20442;-87
2022/07/18 00:37:19;;;;;;;2.95;1.65;;;;;;;;;;4968751;28;20043;-87
2022/07/18 00:39:44;;;;;;;3.50;1.70;;;;;;;;;;4967119;28;20030;-86
2022/07/18 00:42:10;;;;;;;5.63;1.77;;;;;;;;;;4966612;28;20046;-86
2022/07/18 00:44:35;;;;;;;3.13;1.52;;;;;;;;;;4982215;28;20426;-87
2022/07/18 00:47:01;;;;;;;3.17;1.85;;;;;;;;;;4976099;28;20081;-88
2022/07/18 00:49:27;;;;;;;3.47;1.90;;;;;;;;;;4960316;28;20094;-87
2022/07/18 00:51:53;;;;;;;3.25;1.50;;;;;;;;;;4960680;28;20027;-87
2022/07/18 00:54:19;;;;;;;2.90;1.55;;;;;;;;;;4966348;28;20035;-87
2022/07/18 00:56:49;;;;;;;3.70;1.30;;;;;;;;;;4960579;28;20477;-87
2022/07/18 00:59:14;;;;;;;2.70;1.73;;;;;;;;;;4964635;28;20137;-87
2022/07/18 01:01:43;;;;;;;3.88;1.60;;;;;;;;;;4963807;28;20671;-86
2022/07/18 01:04:10;;;;;;;3.45;1.60;;;;;;;;;;4983404;28;20027;-87
2022/07/18 01:06:36;;;;;;;3.35;1.98;;;;;;;;;;4967915;28;20039;-86
2022/07/18 01:09:02;;;;;;;5.20;1.95;;;;;;;;;;4958202;28;20030;-86
2022/07/18 01:11:28;;;;;;;2.42;1.60;;;;;;;;;;4968564;28;20129;-86
2022/07/18 01:13:53;;;;;;;5.63;1.90;;;;;;;;;;4967401;28;20469;-87
2022/07/18 01:16:19;;;;;;;2.55;1.67;;;;;;;;;;4969152;28;20042;-86
2022/07/18 01:18:49;;;;;;;2.38;1.63;;;;;;;;;;4968478;28;20081;-86
2022/07/18 01:21:15;;;;;;;4.82;1.83;;;;;;;;;;4964271;28;20062;-86
2022/07/18 01:23:41;;;;;;;4.28;1.75;;;;;;;;;;4960777;28;20169;-87
2022/07/18 01:26:07;;;;;;;2.90;1.70;;;;;;;;;;4983265;28;20522;-86
2022/07/18 01:28:35;;;;;;;3.10;1.85;;;;;;;;;;4972446;28;20045;-87
2022/07/18 01:31:01;;;;;;;6.82;2.00;;;;;;;;;;4973666;28;20105;-85
2022/07/18 01:33:26;;;;;;;2.88;1.90;;;;;;;;;;4967743;28;20118;-87
2022/07/18 01:35:52;;;;;;;3.92;1.77;;;;;;;;;;4966133;28;20035;-87
2022/07/18 01:38:19;;;;;;;4.22;1.85;;;;;;;;;;4962980;28;20043;-87
2022/07/18 01:40:44;;;;;;;4.22;2.40;;;;;;;;;;4970865;28;20093;-86
2022/07/18 01:43:10;;;;;;;4.25;2.10;;;;;;;;;;4968832;28;20038;-87
2022/07/18 01:45:35;;;;;;;3.42;1.80;;;;;;;;;;4968320;28;20027;-87
2022/07/18 01:48:01;;;;;;;4.82;1.90;;;;;;;;;;4961214;28;20030;-87
2022/07/18 01:50:26;;;;;;;3.90;2.30;;;;;;;;;;4967709;28;20102;-86
2022/07/18 01:52:52;;;;;;;5.25;1.50;;;;;;;;;;4970042;28;20054;-87
2022/07/18 01:55:17;;;;;;;4.35;1.83;;;;;;;;;;4963596;28;20045;-87
2022/07/18 01:57:42;;;;;;;3.90;1.80;;;;;;;;;;4965854;28;20027;-88
2022/07/18 02:00:10;;;;;;;2.85;1.70;;;;;;;;;;4958783;28;20049;-87
2022/07/18 02:02:35;;;;;;;2.80;1.52;;;;;;;;;;4967018;28;20064;-87
2022/07/18 02:05:01;;;;;;;3.55;1.80;;;;;;;;;;4965253;28;20510;-86
2022/07/18 02:07:30;;;;;;;2.35;1.40;;;;;;;;;;4965909;28;20047;-86
2022/07/18 02:09:56;;;;;;;3.78;1.88;;;;;;;;;;4968417;28;20121;-86
2022/07/18 02:12:22;;;;;;;2.42;1.88;;;;;;;;;;4968540;28;21041;-86
2022/07/18 02:14:47;;;;;;;3.13;1.77;;;;;;;;;;4970084;28;20042;-86
2022/07/18 02:17:13;;;;;;;4.40;1.90;;;;;;;;;;4967175;28;20106;-86
2022/07/18 02:19:38;;;;;;;6.15;1.90;;;;;;;;;;4967241;28;20113;-86
2022/07/18 02:22:04;;;;;;;4.03;1.65;;;;;;;;;;4966147;28;20051;-86
2022/07/18 02:24:29;;;;;;;2.95;1.80;;;;;;;;;;4965758;28;20118;-86
2022/07/18 02:26:55;;;;;;;3.28;1.77;;;;;;;;;;4967010;28;20521;-86
2022/07/18 02:29:20;;;;;;;5.22;2.30;;;;;;;;;;4971821;28;20042;-85
2022/07/18 02:31:46;;;;;;;2.45;1.67;;;;;;;;;;4966542;28;20062;-86
2022/07/18 02:34:11;;;;;;;3.70;2.00;;;;;;;;;;4965318;28;20043;-86
2022/07/18 02:36:40;;;;;;;4.55;1.85;;;;;;;;;;4956713;28;20446;-86
2022/07/18 02:39:07;;;;;;;4.90;1.70;;;;;;;;;;4956995;28;20049;-86
2022/07/18 02:41:33;;;;;;;2.33;1.50;;;;;;;;;;4962071;28;20418;-86
2022/07/18 02:43:59;;;;;;;3.88;1.90;;;;;;;;;;4960409;28;20043;-86
2022/07/18 02:46:25;;;;;;;5.35;2.03;;;;;;;;;;4965369;28;20042;-86
2022/07/18 02:48:50;;;;;;;4.18;2.20;;;;;;;;;;4970432;28;20560;-86
2022/07/18 02:51:15;;;;;;;3.25;2.00;;;;;;;;;;4968702;28;20419;-86
2022/07/18 02:53:41;;;;;;;3.17;1.88;;;;;;;;;;4970916;28;20054;-86
2022/07/18 02:56:06;;;;;;;2.75;1.90;;;;;;;;;;4973316;28;20395;-86
2022/07/18 02:58:32;;;;;;;4.03;2.08;;;;;;;;;;4968384;28;20035;-86
2022/07/18 03:00:58;;;;;;;3.17;1.80;;;;;;;;;;4970970;28;20027;-85
2022/07/18 03:03:23;;;;;;;2.45;1.90;;;;;;;;;;4971644;28;20622;-86
2022/07/18 03:05:48;;;;;;;4.90;1.80;;;;;;;;;;4968098;28;20069;-87
2022/07/18 03:08:14;;;;;;;3.70;2.22;;;;;;;;;;4970274;28;20034;-86
2022/07/18 03:10:39;;;;;;;4.38;2.20;;;;;;;;;;4969367;28;20053;-86
2022/07/18 03:13:05;;;;;;;4.40;1.90;;;;;;;;;;4969705;28;20027;-86
2022/07/18 03:15:30;;;;;;;4.35;2.17;;;;;;;;;;4969982;28;20450;-86
2022/07/18 03:17:56;;;;;;;4.47;2.30;;;;;;;;;;4961864;28;20035;-85
2022/07/18 03:20:21;;;;;;;3.78;2.05;;;;;;;;;;4982558;28;20046;-86
2022/07/18 03:22:46;;;;;;;2.80;1.73;;;;;;;;;;4961818;28;20042;-86
2022/07/18 03:25:12;;;;;;;3.95;2.05;;;;;;;;;;4954066;28;20506;-86
2022/07/18 03:27:37;;;;;;;3.33;1.88;;;;;;;;;;4961510;28;20651;-86
2022/07/18 03:30:03;;;;;;;5.25;2.15;;;;;;;;;;4988349;28;20031;-86
2022/07/18 03:32:28;;;;;;;3.17;2.00;;;;;;;;;;4969875;28;20077;-86
2022/07/18 03:34:54;;;;;;;5.00;2.00;;;;;;;;;;4969013;28;20038;-85
2022/07/18 03:37:19;;;;;;;4.25;2.20;;;;;;;;;;4971269;28;20122;-86
2022/07/18 03:39:45;;;;;;;10.20;2.28;;;;;;;;;;4978086;28;20091;-87
2022/07/18 03:42:10;;;;;;;3.35;1.73;;;;;;;;;;4970660;28;20069;-86
2022/07/18 03:44:35;;;;;;;3.88;1.92;;;;;;;;;;4970196;28;20410;-87
2022/07/18 03:47:01;;;;;;;9.77;2.33;;;;;;;;;;4970426;28;20035;-86
2022/07/18 03:49:26;;;;;;;7.30;2.45;;;;;;;;;;4985822;28;20023;-86
2022/07/18 03:51:55;;;;;;;5.53;2.22;;;;;;;;;;4968934;28;20069;-86
2022/07/18 03:54:20;;;;;;;2.65;1.98;;;;;;;;;;4969867;28;20564;-86
2022/07/18 03:56:46;;;;;;;3.55;2.25;;;;;;;;;;4966557;28;20035;-86
2022/07/18 03:59:11;;;;;;;3.92;1.98;;;;;;;;;;4982037;28;20037;-87
2022/07/18 04:01:36;;;;;;;5.47;2.47;;;;;;;;;;4969111;28;20430;-86
2022/07/18 04:04:02;;;;;;;7.82;2.72;;;;;;;;;;4964114;28;20058;-86
2022/07/18 04:06:27;;;;;;;4.55;2.30;;;;;;;;;;4971048;28;20035;-85
2022/07/18 04:08:53;;;;;;;5.20;2.50;;;;;;;;;;4967244;28;20030;-87
2022/07/18 04:11:23;;;;;;;6.30;2.25;;;;;;;;;;4967927;28;20139;-86
2022/07/18 04:13:49;;;;;;;4.28;2.08;;;;;;;;;;4967262;28;20098;-86
2022/07/18 04:16:15;;;;;;;4.38;2.30;;;;;;;;;;4969335;28;20038;-85
2022/07/18 04:18:40;;;;;;;6.40;2.40;;;;;;;;;;4969653;28;20027;-87
2022/07/18 04:21:05;;;;;;;7.05;2.50;;;;;;;;;;4967115;28;20035;-86
2022/07/18 04:23:31;;;;;;;5.28;2.67;;;;;;;;;;4983145;28;20058;-86
2022/07/18 04:25:56;;;;;;;5.43;2.45;;;;;;;;;;4967639;28;20038;-85
2022/07/18 04:28:21;;;;;;;6.72;2.53;;;;;;;;;;4970578;28;20620;-86
2022/07/18 04:30:47;;;;;;;4.38;2.63;;;;;;;;;;4970415;28;20029;-86
2022/07/18 04:33:12;;;;;;;4.32;2.20;;;;;;;;;;4982093;28;20073;-86
2022/07/18 04:35:39;;;;;;;4.13;2.30;;;;;;;;;;4967777;28;20498;-86
2022/07/18 04:38:06;;;;;;;4.40;2.40;;;;;;;;;;4965032;28;20031;-87
2022/07/18 04:40:31;;;;;;;4.15;2.10;;;;;;;;;;4968170;28;20117;-86
2022/07/18 04:42:57;;;;;;;7.82;2.15;;;;;;;;;;4962202;28;20097;-86
2022/07/18 04:45:23;;;;;;;4.72;2.25;;;;;;;;;;4965543;28;20133;-86
2022/07/18 04:47:53;;;;;;;5.57;2.33;;;;;;;;;;4962384;28;20035;-86
2022/07/18 04:50:19;;;;;;;5.78;2.28;;;;;;;;;;4967716;28;20514;-86
2022/07/18 04:52:46;;;;;;;5.55;2.10;;;;;;;;;;4967133;28;20031;-86
2022/07/18 04:55:13;;;;;;;2.47;1.90;;;;;;;;;;4964260;28;20490;-86
2022/07/18 04:57:39;;;;;;;7.05;2.28;;;;;;;;;;4968717;28;20041;-86
2022/07/18 05:00:09;;;;;;;3.90;2.30;;;;;;;;;;4961865;28;20038;-86
2022/07/18 05:02:34;;;;;;;4.40;2.20;;;;;;;;;;4959700;28;20548;-86
2022/07/18 05:05:00;;;;;;;9.15;2.65;;;;;;;;;;4970340;28;20102;-86
2022/07/18 05:07:25;;;;;;;4.55;2.05;;;;;;;;;;4962912;28;20038;-86
2022/07/18 05:09:50;;;;;;;5.43;2.88;;;;;;;;;;4968036;28;20038;-86
2022/07/18 05:12:18;;;;;;;5.80;2.45;;;;;;;;;;4979783;28;20430;-86
2022/07/18 05:14:43;;;;;;;4.50;2.05;;;;;;;;;;4983099;28;20050;-86
2022/07/18 05:17:09;;;;;;;4.90;2.42;;;;;;;;;;4967735;28;20043;-87
2022/07/18 05:19:34;;;;;;;5.15;2.38;;;;;;;;;;4961354;28;20035;-87
2022/07/18 05:21:59;;;;;;;3.67;2.50;;;;;;;;;;4967667;28;20077;-87
2022/07/18 05:24:25;;;;;;;8.15;2.67;;;;;;;;;;4977603;28;20026;-87
2022/07/18 05:26:51;;;;;;;6.90;2.47;;;;;;;;;;4966227;28;20035;-86
2022/07/18 05:29:16;;;;;;;5.97;2.88;;;;;;;;;;4975180;28;20038;-88
2022/07/18 05:31:42;;;;;;;6.03;2.50;;;;;;;;;;4979277;28;20525;-88
2022/07/18 05:34:08;;;;;;;5.75;2.60;;;;;;;;;;4964937;28;20018;-87
2022/07/18 05:36:33;;;;;;;3.92;2.38;;;;;;;;;;4975313;28;20105;-87
2022/07/18 05:38:59;;;;;;;8.65;2.50;;;;;;;;;;4967985;28;20074;-88
2022/07/18 05:41:24;;;;;;;8.85;2.75;;;;;;;;;;4960688;28;20031;-88
2022/07/18 05:43:50;;;;;;;6.03;2.63;;;;;;;;;;4965646;28;20038;-88
2022/07/18 05:46:15;;;;;;;7.45;2.83;;;;;;;;;;4978564;28;20509;-89
2022/07/18 05:48:41;;;;;;;4.45;2.40;;;;;;;;;;4970641;28;20105;-89
2022/07/18 05:51:06;;;;;;;4.15;2.38;;;;;;;;;;4970597;28;20038;-89
2022/07/18 05:53:32;;;;;;;6.82;2.33;;;;;;;;;;4980087;28;20042;-91
2022/07/18 05:55:57;;;;;;;7.80;2.47;;;;;;;;;;4964069;28;20048;-91
2022/07/18 05:58:23;;;;;;;5.38;2.35;;;;;;;;;;4963093;28;20435;-91
2022/07/18 06:00:48;;;;;;;2.95;2.10;;;;;;;;;;4963585;28;20023;-91
2022/07/18 06:03:14;;;;;;;6.80;2.25;;;;;;;;;;4968703;28;20031;-92
2022/07/18 06:05:39;;;;;;;3.28;2.10;;;;;;;;;;4971335;28;20031;-92
2022/07/18 06:08:05;;;;;;;3.28;2.10;;;;;;;;;;4972537;28;20042;-93
2022/07/18 06:10:31;;;;;;;4.53;2.42;;;;;;;;;;4973574;28;20035;-90
2022/07/18 06:12:56;;;;;;;6.28;2.78;;;;;;;;;;4983344;28;20015;-87
2022/07/18 06:15:22;;;;;;;3.83;1.88;;;;;;;;;;4987968;28;20023;-89
2022/07/18 06:17:47;;;;;;;4.07;1.90;;;;;;;;;;4981191;28;20063;-89
2022/07/18 06:20:13;;;;;;;3.88;2.33;;;;;;;;;;4975698;28;20262;-88
2022/07/18 06:22:38;;;;;;;4.32;2.05;;;;;;;;;;4980918;28;20030;-89
2022/07/18 06:25:04;;;;;;;2.80;2.08;;;;;;;;;;4974520;28;20026;-89
2022/07/18 06:27:30;;;;;;;5.65;2.13;;;;;;;;;;4969468;28;20027;-91
2022/07/18 06:29:55;;;;;;;11.63;2.35;;;;;;;;;;4984961;28;20166;-91
2022/07/18 06:32:20;;;;;;;4.20;2.00;;;;;;;;;;4966930;28;20062;-90
2022/07/18 06:34:46;;;;;;;3.70;1.90;;;;;;;;;;4959389;28;20066;-91
2022/07/18 06:37:14;;;;;;;6.35;1.83;;;;;;;;;;4969176;28;20033;-91
2022/07/18 06:39:39;;;;;;;3.33;2.10;;;;;;;;;;4965852;28;20034;-91
2022/07/18 06:42:05;;;;;;;9.23;2.17;;;;;;;;;;4965190;28;20058;-89
2022/07/18 06:44:30;;;;;;;5.25;2.25;;;;;;;;;;4963439;28;20032;-91
2022/07/18 06:46:57;;;;;;;5.13;1.58;;;;;;;;;;4976792;28;20035;-90
2022/07/18 06:49:22;;;;;;;3.20;2.00;;;;;;;;;;4980703;28;20038;-91
2022/07/18 06:51:48;;;;;;;2.50;1.63;;;;;;;;;;4970701;28;20085;-90
2022/07/18 06:54:13;;;;;;;4.22;1.63;;;;;;;;;;4967833;28;20093;-91
2022/07/18 06:56:38;;;;;;;2.22;1.85;;;;;;;;;;4964939;28;20046;-91
2022/07/18 06:59:04;;;;;;;3.92;1.90;;;;;;;;;;4967096;28;20039;-91
2022/07/18 07:01:29;;;;;;;3.95;1.85;;;;;;;;;;4966360;28;20046;-89
2022/07/18 07:03:54;;;;;;;2.85;1.88;;;;;;;;;;4964995;28;20026;-88
2022/07/18 07:06:20;;;;;;;2.67;1.83;;;;;;;;;;4965879;28;20039;-88
2022/07/18 07:08:45;;;;;;;2.63;1.55;;;;;;;;;;4982351;28;20031;-89
2022/07/18 07:11:11;;;;;;;3.25;2.15;;;;;;;;;;4969605;28;20049;-89
2022/07/18 07:13:36;;;;;;;5.32;2.00;;;;;;;;;;4970896;28;20039;-89
2022/07/18 07:16:01;;;;;;;3.72;1.90;;;;;;;;;;4970729;28;20379;-89
2022/07/18 07:18:27;;;;;;;2.53;2.00;;;;;;;;;;4960475;28;20514;-88
2022/07/18 07:20:55;;;;;;;2.97;1.70;;;;;;;;;;4962338;28;20067;-87
2022/07/18 07:23:20;;;;;;;5.40;2.00;;;;;;;;;;4962649;28;20042;-87
2022/07/18 07:25:46;;;;;;;3.00;1.85;;;;;;;;;;4966597;28;20094;-88
2022/07/18 07:28:11;;;;;;;7.35;2.03;;;;;;;;;;4965445;28;20030;-86
2022/07/18 07:30:37;;;;;;;5.97;2.00;;;;;;;;;;4961531;28;20038;-88
2022/07/18 07:33:06;;;;;;;2.58;1.95;;;;;;;;;;4963478;28;20039;-87
2022/07/18 07:35:32;;;;;;;3.95;1.95;;;;;;;;;;4962316;28;20035;-87
2022/07/18 07:37:58;;;;;;;6.47;1.80;;;;;;;;;;4963379;28;20053;-86
2022/07/18 07:40:26;;;;;;;2.60;1.73;;;;;;;;;;4961769;28;20115;-85
2022/07/18 07:42:52;;;;;;;2.92;1.80;;;;;;;;;;4979509;28;20026;-87
2022/07/18 07:45:18;;;;;;;12.45;2.70;;;;;;;;;;4965663;28;20039;-85
2022/07/18 07:47:44;;;;;;;14.93;3.05;;;;;;;;;;4965086;28;20039;-86
2022/07/18 07:50:11;;;;;;;7.65;2.33;;;;;;;;;;4967645;28;20050;-87
2022/07/18 07:52:37;;;;;;;3.67;1.88;;;;;;;;;;4955197;28;20032;-87
2022/07/18 07:55:05;;;;;;;3.53;1.75;;;;;;;;;;4960981;28;20448;-86
2022/07/18 07:57:30;;;;;;;3.45;2.00;;;;;;;;;;4956442;28;20035;-86
2022/07/18 07:59:56;;;;;;;3.03;1.80;;;;;;;;;;4968772;28;20675;-87
2022/07/18 08:02:21;;;;;;;3.97;2.00;;;;;;;;;;4965487;28;20074;-86
2022/07/18 08:04:47;;;;;;;7.10;1.77;;;;;;;;;;4969021;28;20058;-87
2022/07/18 08:07:12;;;;;;;7.63;1.70;;;;;;;;;;4970597;28;20041;-85
2022/07/18 08:09:38;;;;;;;5.03;1.65;;;;;;;;;;4970832;28;20065;-86
2022/07/18 08:12:04;;;;;;;3.38;1.95;;;;;;;;;;4970463;28;20084;-85
2022/07/18 08:14:32;;;;;;;6.18;2.55;;;;;;;;;;4982211;28;20035;-87
2022/07/18 08:16:58;;;;;;;3.83;1.75;;;;;;;;;;4966341;28;20046;-86
2022/07/18 08:19:23;;;;;;;5.22;2.10;;;;;;;;;;4964203;28;20042;-86
2022/07/18 08:21:48;;;;;;;9.73;2.03;;;;;;;;;;4969763;28;20047;-86
2022/07/18 08:24:14;;;;;;;13.02;2.38;;;;;;;;;;4968030;28;20051;-85
2022/07/18 08:26:39;;;;;;;6.32;2.05;;;;;;;;;;4969055;28;20038;-85
2022/07/18 08:29:08;;;;;;;4.05;2.10;;;;;;;;;;4973946;28;20526;-87
2022/07/18 08:31:34;;;;;;;6.53;2.15;;;;;;;;;;4969440;28;20035;-86
2022/07/18 08:33:59;;;;;;;3.20;1.80;;;;;;;;;;4963229;28;20110;-88
2022/07/18 08:36:26;;;;;;;5.85;1.80;;;;;;;;;;4965695;28;20027;-90
2022/07/18 08:38:52;;;;;;;3.35;2.10;;;;;;;;;;4970608;28;20113;-88
2022/07/18 08:41:17;;;;;;;3.10;1.90;;;;;;;;;;4981701;28;20050;-90
2022/07/18 08:43:45;;;;;;;5.85;2.00;;;;;;;;;;4967431;28;20114;-90
2022/07/18 08:46:16;;;;;;;3.63;2.10;;;;;;;;;;4968018;28;20085;-89
2022/07/18 08:48:41;;;;;;;2.97;1.92;;;;;;;;;;4958427;28;20023;-90
2022/07/18 08:51:07;;;;;;;4.47;1.48;;;;;;;;;;4961819;28;20050;-88
2022/07/18 08:53:35;;;;;;;2.92;1.85;;;;;;;;;;4961962;28;20388;-89
2022/07/18 08:56:11;;;;;;;2.25;1.88;;;;;;;;;;4967039;28;20043;-88
2022/07/18 08:58:37;;;;;;;2.78;1.80;;;;;;;;;;4972343;28;20521;-88
2022/07/18 09:01:03;;;;;;;10.93;2.35;;;;;;;;;;4962642;28;20031;-88
2022/07/18 09:03:29;;;;;;;2.60;2.00;;;;;;;;;;4954986;28;20400;-88
2022/07/18 09:06:09;;;;;;;4.15;2.10;;;;;;;;;;4960984;28;20582;-88
2022/07/18 09:08:58;;;;;;;6.32;1.73;;;;;;;;;;4963927;28;20122;-89
2022/07/18 09:11:25;;;;;;;2.60;1.90;;;;;;;;;;4963332;28;20089;-90
2022/07/18 09:13:50;;;;;;;4.20;2.00;;;;;;;;;;4966743;28;20525;-90
2022/07/18 09:16:15;;;;;;;2.80;1.92;;;;;;;;;;4964287;28;20029;-91
2022/07/18 09:18:46;;;;;;;3.80;1.90;;;;;;;;;;4956161;28;20039;-91
2022/07/18 09:21:20;;;;;;;3.60;1.50;;;;;;;;;;4964452;28;20138;-90
2022/07/18 09:24:15;;;;;;;2.17;1.85;;;;;;;;;;4956200;28;20081;-89
2022/07/18 09:26:43;;;;;;;2.13;1.75;;;;;;;;;;4998105;28;20055;-89
2022/07/18 09:29:15;;;;;;;15.98;2.10;;;;;;;;;;4950278;28;20062;-88
2022/07/18 09:31:48;;;;;;;2.38;1.80;;;;;;;;;;4950839;28;20039;-90
2022/07/18 09:34:13;;;;;;;6.95;2.00;;;;;;;;;;4960037;28;20557;-88
2022/07/18 09:36:54;;;;;;;2.63;1.95;;;;;;;;;;4964703;28;20122;-90
2022/07/18 09:39:20;;;;;;;1.83;1.63;;;;;;;;;;4969109;28;20077;-89
2022/07/18 09:41:56;;;;;;;2.85;1.60;;;;;;;;;;4986865;28;20050;-91
2022/07/18 09:44:22;;;;;;;2.13;1.73;;;;;;;;;;4960323;28;20129;-90
2022/07/18 09:47:04;;;;;;;6.00;1.90;;;;;;;;;;4981109;28;20142;-91
2022/07/18 09:49:31;;;;;;;4.82;1.80;;;;;;;;;;4959354;28;20043;-90
2022/07/18 09:52:08;;;;;;;10.98;2.53;;;;;;;;;;4966217;28;20102;-87
2022/07/18 09:54:39;;;;;;;3.22;1.70;;;;;;;;;;4966709;28;20046;-92
2022/07/18 09:57:08;;;;;;;1.58;1.40;;;;;;;;;;4967972;28;20529;-90
2022/07/18 09:59:37;;;;;;;3.50;1.63;;;;;;;;;;4965085;28;20046;-87
2022/07/18 10:02:04;;;;;;;2.75;2.08;;;;;;;;;;4966525;28;20035;-90
2022/07/18 10:04:30;;;;;;;3.55;1.58;;;;;;;;;;4965226;28;20045;-92
2022/07/18 10:06:55;;;;;;;3.15;1.42;;;;;;;;;;4983460;28;20026;-91
2022/07/18 10:09:21;;;;;;;3.28;1.88;;;;;;;;;;4968691;28;20121;-91
2022/07/18 10:11:47;;;;;;;2.92;1.50;;;;;;;;;;4964016;28;20108;-90
2022/07/18 10:14:12;;;;;;;1.73;1.63;;;;;;;;;;4965697;28;20473;-91
2022/07/18 10:16:38;;;;;;;2.75;1.50;;;;;;;;;;4966351;28;20876;-90
2022/07/18 10:19:03;;;;;;;1.90;1.70;;;;;;;;;;4997300;28;20026;-90
2022/07/18 10:21:30;;;;;;;2.28;1.60;;;;;;;;;;4970922;28;20047;-91
2022/07/18 10:23:56;;;;;;;4.40;1.83;;;;;;;;;;4968804;28;20057;-89
2022/07/18 10:26:24;;;;;;;2.72;1.60;;;;;;;;;;4971011;28;20043;-88
2022/07/18 10:28:55;;;;;;;3.78;1.70;;;;;;;;;;4974137;28;20049;-91
2022/07/18 10:31:22;;;;;;;22.80;2.67;;;;;;;;;;4967930;28;20394;-89
2022/07/18 10:33:48;;;;;;;12.27;2.63;;;;;;;;;;4975714;28;20039;-88
2022/07/18 10:36:19;;;;;;;2.05;1.75;;;;;;;;;;4967396;28;20479;-92
2022/07/18 10:39:07;;;;;;;11.77;2.22;;;;;;;;;;4969864;28;20074;-89
2022/07/18 10:42:01;;;;;;;2.95;1.55;;;;;;;;;;4968104;28;20042;-90
2022/07/18 10:44:29;;;;;;;86.43;7.32;;;;;;;;;;4956859;28;20078;-89
2022/07/18 10:47:11;;;;;;;3.05;1.50;;;;;;;;;;4979961;28;20098;-88
2022/07/18 10:49:49;;;;;;;2.40;2.00;;;;;;;;;;4970582;28;20050;-88
2022/07/18 10:52:27;;;;;;;6.40;1.70;;;;;;;;;;4985735;28;20043;-88
2022/07/18 10:55:01;;;;;;;3.90;2.00;;;;;;;;;;4965834;28;20031;-89
2022/07/18 10:57:28;;;;;;;3.90;2.00;;;;;;;;;;4963740;28;20135;-91
2022/07/18 11:00:08;;;;;;;3.17;1.80;;;;;;;;;;4966764;28;20470;-90
2022/07/18 11:02:46;;;;;;;2.35;1.95;;;;;;;;;;4979493;28;20083;-89
2022/07/18 11:05:23;;;;;;;7.18;2.03;;;;;;;;;;4958546;28;20082;-91
2022/07/18 11:08:01;;;;;;;2.22;1.60;;;;;;;;;;4980903;28;20546;-88
2022/07/18 11:10:49;;;;;;;4.03;1.67;;;;;;;;;;4967682;28;20045;-90
2022/07/18 11:13:43;;;;;;;3.42;1.70;;;;;;;;;;4969544;28;20035;-89
2022/07/18 11:16:15;;;;;;;2.58;1.67;;;;;;;;;;4967826;28;20097;-90
2022/07/18 11:18:40;;;;;;;3.83;1.77;;;;;;;;;;4967788;28;20035;-92
2022/07/18 11:21:34;;;;;;;4.53;1.80;;;;;;;;;;4984765;28;20121;-91
2022/07/18 11:23:59;;;;;;;2.40;1.80;;;;;;;;;;4966838;28;20039;-89
2022/07/18 11:26:25;;;;;;;2.20;1.50;;;;;;;;;;4970478;28;20042;-91
2022/07/18 11:29:09;;;;;;;3.75;1.80;;;;;;;;;;4972209;28;20046;-91
2022/07/18 11:31:52;;;;;;;5.28;1.58;;;;;;;;;;4980462;28;20050;-89
2022/07/18 11:34:18;;;;;;;3.08;1.77;;;;;;;;;;4967621;28;20027;-90
2022/07/18 11:36:46;;;;;;;3.13;1.58;;;;;;;;;;4972305;28;20058;-89
2022/07/18 11:39:13;;;;;;;6.47;1.80;;;;;;;;;;4969275;28;20661;-89
2022/07/18 11:41:40;;;;;;;1.85;1.60;;;;;;;;;;4967722;28;20047;-90
2022/07/18 11:44:17;;;;;;;7.28;2.20;;;;;;;;;;4969039;28;20074;-93
2022/07/18 11:46:43;;;;;;;1.90;1.52;;;;;;;;;;4968475;28;20038;-92
2022/07/18 11:49:08;;;;;;;8.40;1.70;;;;;;;;;;4972539;28;20041;-92
2022/07/18 11:51:36;;;;;;;3.10;1.73;;;;;;;;;;4983860;28;20030;-92
2022/07/18 11:54:02;;;;;;;2.35;1.50;;;;;;;;;;4967090;28;20050;-93
2022/07/18 11:56:27;;;;;;;3.03;1.80;;;;;;;;;;4973310;28;20035;-92
2022/07/18 11:58:53;;;;;;;1.90;1.70;;;;;;;;;;4968983;28;20403;-93
2022/07/18 12:01:18;;;;;;;4.28;1.80;;;;;;;;;;4969401;28;20129;-92
2022/07/18 12:03:47;;;;;;;3.28;1.75;;;;;;;;;;4968620;28;20058;-94
2022/07/18 12:06:15;;;;;;;5.95;1.83;;;;;;;;;;4968488;28;20039;-92
2022/07/18 12:08:48;;;;;;;2.30;1.90;;;;;;;;;;4967056;28;20098;-89
2022/07/18 12:11:26;;;;;;;6.65;2.10;;;;;;;;;;4968487;28;20050;-93
2022/07/18 12:13:58;;;;;;;2.72;1.60;;;;;;;;;;4975833;28;20186;-89
2022/07/18 12:16:40;;;;;;;2.90;2.00;;;;;;;;;;4964782;28;20073;-89
2022/07/18 12:19:12;;;;;;;3.53;1.75;;;;;;;;;;4963569;28;20081;-90
2022/07/18 12:22:08;;;;;;;3.72;1.90;;;;;;;;;;4967654;28;20121;-92
2022/07/18 12:24:40;;;;;;;5.63;1.67;;;;;;;;;;4955749;28;20061;-90
2022/07/18 12:27:23;;;;;;;2.63;1.85;;;;;;;;;;4976658;28;20101;-91
2022/07/18 12:30:06;;;;;;;3.28;1.70;;;;;;;;;;4962837;28;20070;-90
2022/07/18 12:32:42;;;;;;;5.68;1.60;;;;;;;;;;4980188;28;20050;-91
2022/07/18 12:35:16;;;;;;;1.75;1.65;;;;;;;;;;4967312;28;20124;-89
2022/07/18 12:37:54;;;;;;;2.83;1.80;;;;;;;;;;4967817;28;20526;-92
2022/07/18 12:40:22;;;;;;;3.88;1.70;;;;;;;;;;4970234;28;20046;-93
2022/07/18 12:42:48;;;;;;;2.30;1.83;;;;;;;;;;4967117;28;20030;-90
2022/07/18 12:45:14;;;;;;;1.90;1.70;;;;;;;;;;4963814;28;21097;-93
2022/07/18 12:47:39;;;;;;;2.45;1.50;;;;;;;;;;4963987;28;20126;-92
2022/07/18 12:50:06;;;;;;;2.67;1.70;;;;;;;;;;4976520;28;20133;-93
2022/07/18 12:52:32;;;;;;;3.63;1.77;;;;;;;;;;4967018;28;20038;-92
2022/07/18 12:54:58;;;;;;;5.68;2.08;;;;;;;;;;4967506;28;20035;-92
2022/07/18 12:57:23;;;;;;;2.92;1.73;;;;;;;;;;4963656;28;20043;-89
2022/07/18 12:59:48;;;;;;;5.00;1.70;;;;;;;;;;4965214;28;20093;-90
2022/07/18 13:02:15;;;;;;;5.30;2.00;;;;;;;;;;4963879;28;20580;-92
2022/07/18 13:04:41;;;;;;;2.03;1.70;;;;;;;;;;4965285;28;20522;-92
2022/07/18 13:07:06;;;;;;;6.07;1.77;;;;;;;;;;4979034;28;20082;-92
2022/07/18 13:09:31;;;;;;;2.42;1.75;;;;;;;;;;4960403;28;20035;-92
2022/07/18 13:12:12;;;;;;;6.88;1.77;;;;;;;;;;4979653;28;20035;-92
2022/07/18 13:14:40;;;;;;;2.00;1.50;;;;;;;;;;4963787;28;20047;-93
2022/07/18 13:17:06;;;;;;;2.10;1.90;;;;;;;;;;4963455;28;20914;-93
2022/07/18 13:19:31;;;;;;;1.98;1.50;;;;;;;;;;4959666;28;20042;-91
2022/07/18 13:21:57;;;;;;;5.45;1.70;;;;;;;;;;4969146;28;20053;-92
2022/07/18 13:24:23;;;;;;;2.28;1.60;;;;;;;;;;4976665;28;20122;-92
2022/07/18 13:26:49;;;;;;;2.05;1.50;;;;;;;;;;4960100;28;20114;-91
2022/07/18 13:29:15;;;;;;;2.80;1.70;;;;;;;;;;4963428;28;20501;-92
2022/07/18 13:31:40;;;;;;;2.38;1.70;;;;;;;;;;4965254;28;20045;-87
2022/07/18 13:34:06;;;;;;;2.22;1.80;;;;;;;;;;4964884;28;20680;-89
2022/07/18 13:36:32;;;;;;;3.47;1.85;;;;;;;;;;4983085;28;20494;-92
2022/07/18 13:38:59;;;;;;;1.70;1.60;;;;;;;;;;4960854;28;20071;-92
2022/07/18 13:41:24;;;;;;;2.90;1.90;;;;;;;;;;4979796;28;20037;-89
2022/07/18 13:43:49;;;;;;;1.60;1.50;;;;;;;;;;4966306;28;20039;-92
2022/07/18 13:46:16;;;;;;;2.22;1.65;;;;;;;;;;4986959;28;20027;-92
2022/07/18 13:48:42;;;;;;;9.68;1.80;;;;;;;;;;4968083;28;20034;-89
2022/07/18 13:51:09;;;;;;;1.98;1.60;;;;;;;;;;4968245;28;20035;-93
2022/07/18 13:53:34;;;;;;;3.17;1.75;;;;;;;;;;4976193;28;20125;-92
2022/07/18 13:55:59;;;;;;;3.47;1.40;;;;;;;;;;4968446;28;20134;-92
2022/07/18 13:58:25;;;;;;;4.82;1.70;;;;;;;;;;4980946;28;20070;-92
2022/07/18 14:00:51;;;;;;;2.30;1.45;;;;;;;;;;4971654;28;20106;-92
2022/07/18 14:03:16;;;;;;;1.98;1.58;;;;;;;;;;4966307;28;20126;-93
2022/07/18 14:05:42;;;;;;;6.20;1.50;;;;;;;;;;4972832;28;20042;-90
2022/07/18 14:08:08;;;;;;;5.57;1.60;;;;;;;;;;4970751;28;20045;-90
2022/07/18 14:10:35;;;;;;;1.50;1.40;;;;;;;;;;4965487;28;20433;-89
2022/07/18 14:13:03;;;;;;;4.40;1.55;;;;;;;;;;4984472;28;20038;-91
2022/07/18 14:15:29;;;;;;;2.50;1.63;;;;;;;;;;4965733;28;20046;-93
2022/07/18 14:17:55;;;;;;;1.52;1.40;;;;;;;;;;4967660;28;20043;-92
2022/07/18 14:20:23;;;;;;;2.00;1.60;;;;;;;;;;4968242;28;20070;-93
2022/07/18 14:22:48;;;;;;;1.58;1.48;;;;;;;;;;4973097;28;20035;-90
2022/07/18 14:25:16;;;;;;;2.75;1.67;;;;;;;;;;5000984;28;20023;-90
2022/07/18 14:27:46;;;;;;;2.60;1.70;;;;;;;;;;4996436;28;20845;-91
2022/07/18 14:30:14;;;;;;;2.58;1.45;;;;;;;;;;4968858;28;20054;-92
2022/07/18 14:32:40;;;;;;;4.80;1.83;;;;;;;;;;4966739;28;20038;-91
2022/07/18 14:35:10;;;;;;;2.15;1.50;;;;;;;;;;4982839;28;20055;-92
2022/07/18 14:37:37;;;;;;;2.42;1.65;;;;;;;;;;4963581;28;20117;-92
2022/07/18 14:40:04;;;;;;;5.80;1.90;;;;;;;;;;4969345;28;20754;-93
2022/07/18 14:42:29;;;;;;;2.03;1.60;;;;;;;;;;4970302;28;20557;-94
2022/07/18 14:44:55;;;;;;;4.20;1.60;;;;;;;;;;4972443;28;20031;-90